Time;durP1;ratioP1;P1;durP2;ratioP2;P2;SDS_P1;SDS_P2;PMS_P1;PMS_P2;Temp;Humidity;BMP_temperature;BMP_pressure;BME280_temperature;BME280_humidity;BME280_pressure;Samples;Min_cycle;Max_cycle;Signal;HPM_P1;HPM_P2
2023/03/09 00:00:35;;;;;;;7.45;4.47;;;12.30;87.80;;;;;;5112167;28;20054;-60
2023/03/09 00:03:01;;;;;;;9.00;5.30;;;;;;;;;;5113141;28;20074;-61
2023/03/09 00:05:27;;;;;;;9.40;5.60;;;12.10;84.40;;;;;;5101589;28;20455;-61
2023/03/09 00:07:54;;;;;;;10.90;5.25;;;12.40;87.70;;;;;;5103708;28;20115;-61
2023/03/09 00:10:20;;;;;;;8.80;5.68;;;12.40;87.60;;;;;;5116739;28;20050;-60
2023/03/09 00:12:46;;;;;;;10.52;6.13;;;;;;;;;;5117070;28;20122;-61
2023/03/09 00:15:12;;;;;;;8.35;5.40;;;;;;;;;;5116537;28;20118;-62
2023/03/09 00:17:38;;;;;;;9.32;5.95;;;12.30;87.70;;;;;;5098687;28;20405;-60
2023/03/09 00:20:17;;;;;;;9.18;6.05;;;12.30;87.60;;;;;;5116543;28;20047;-60
2023/03/09 00:22:50;;;;;;;9.50;5.85;;;;;;;;;;5099636;28;20119;-61
2023/03/09 00:25:16;;;;;;;10.13;6.10;;;12.30;87.60;;;;;;5107485;28;20046;-60
2023/03/09 00:27:42;;;;;;;9.40;5.97;;;12.20;87.60;;;;;;5116461;28;20511;-60
2023/03/09 00:30:09;;;;;;;10.60;5.72;;;12.20;84.10;;;;;;5116690;28;20051;-60
2023/03/09 00:32:35;;;;;;;11.15;6.95;;;12.20;87.70;;;;;;5116344;28;20066;-60
2023/03/09 00:35:01;;;;;;;9.98;6.05;;;;;;;;;;5116500;28;20118;-60
2023/03/09 00:37:27;;;;;;;10.75;5.72;;;;;;;;;;5116604;28;20131;-60
2023/03/09 00:39:53;;;;;;;11.05;6.70;;;;;;;;;;5102834;28;20122;-61
2023/03/09 00:42:19;;;;;;;9.88;5.75;;;;;;;;;;5116075;28;20050;-62
2023/03/09 00:44:46;;;;;;;9.82;6.15;;;12.20;87.60;;;;;;5116498;28;20400;-61
2023/03/09 00:47:12;;;;;;;9.60;5.72;;;;;;;;;;5116030;28;20039;-60
2023/03/09 00:49:38;;;;;;;9.85;6.10;;;12.20;87.70;;;;;;5116260;28;20092;-60
2023/03/09 00:52:05;;;;;;;10.13;6.28;;;12.20;84.80;;;;;;5115225;28;20458;-63
2023/03/09 00:54:30;;;;;;;8.48;5.70;;;11.90;87.40;;;;;;5116217;28;20405;-61
2023/03/09 00:56:56;;;;;;;8.90;5.55;;;11.90;87.40;;;;;;5096884;28;20040;-61
2023/03/09 00:59:22;;;;;;;9.15;5.43;;;12.10;87.50;;;;;;5095210;28;20060;-60
2023/03/09 01:01:48;;;;;;;9.15;5.70;;;12.10;87.50;;;;;;5095664;28;20496;-61
2023/03/09 01:04:14;;;;;;;10.23;5.75;;;;;;;;;;5095299;28;20071;-61
2023/03/09 01:06:40;;;;;;;9.73;5.78;;;11.90;87.20;;;;;;5103963;28;20400;-60
2023/03/09 01:09:06;;;;;;;9.52;6.07;;;;;;;;;;5115484;28;20042;-60
2023/03/09 01:11:32;;;;;;;9.63;5.75;;;;;;;;;;5115793;28;20050;-60
2023/03/09 01:13:58;;;;;;;9.40;6.25;;;;;;;;;;5095800;28;20044;-60
2023/03/09 01:16:24;;;;;;;9.25;5.85;;;;;;;;;;5094909;28;20044;-60
2023/03/09 01:18:50;;;;;;;10.02;6.18;;;;;;;;;;5095392;28;20070;-61
2023/03/09 01:21:16;;;;;;;9.95;6.25;;;12.10;87.30;;;;;;5095327;28;20396;-61
2023/03/09 01:23:42;;;;;;;10.95;6.82;;;12.10;87.30;;;;;;5113904;28;20039;-60
2023/03/09 01:26:08;;;;;;;11.13;6.45;;;12.10;87.40;;;;;;5115327;28;20054;-60
2023/03/09 01:28:34;;;;;;;9.45;6.20;;;12.20;87.50;;;;;;5115662;28;20044;-61
2023/03/09 01:31:01;;;;;;;11.18;6.40;;;;;;;;;;5114640;28;20124;-62
2023/03/09 01:33:27;;;;;;;10.77;6.63;;;;;;;;;;5115231;28;20044;-60
2023/03/09 01:35:53;;;;;;;11.38;6.93;;;12.10;87.30;;;;;;5097202;28;20089;-60
2023/03/09 01:38:18;;;;;;;12.05;6.88;;;12.00;87.30;;;;;;5114470;28;20051;-60
2023/03/09 01:40:45;;;;;;;10.20;7.03;;;12.10;87.30;;;;;;5115395;28;20050;-60
2023/03/09 01:43:23;;;;;;;11.75;7.50;;;11.90;83.30;;;;;;5114976;28;20138;-63
2023/03/09 01:45:49;;;;;;;10.73;7.30;;;;;;;;;;5111839;28;20178;-60
2023/03/09 01:48:16;;;;;;;10.85;6.75;;;;;;;;;;5112957;28;20031;-59
2023/03/09 01:50:43;;;;;;;10.93;6.93;;;;;;;;;;5114812;28;20493;-62
2023/03/09 01:53:13;;;;;;;11.57;6.38;;;12.00;83.80;;;;;;5114694;28;20515;-60
2023/03/09 01:55:43;;;;;;;11.73;7.03;;;12.10;84.30;;;;;;5095970;28;20051;-60
2023/03/09 01:58:12;;;;;;;13.35;7.57;;;12.30;84.40;;;;;;5114635;28;20055;-62
2023/03/09 02:00:40;;;;;;;12.00;7.05;;;12.20;87.30;;;;;;5114587;28;20493;-60
2023/03/09 02:03:12;;;;;;;10.75;7.30;;;12.30;84.40;;;;;;5110703;28;20047;-60
2023/03/09 02:05:44;;;;;;;11.30;7.03;;;11.90;82.50;;;;;;5109292;28;20055;-63
2023/03/09 02:08:10;;;;;;;11.10;6.73;;;12.00;87.20;;;;;;5095520;28;20366;-61
2023/03/09 02:10:37;;;;;;;10.80;6.30;;;12.20;87.40;;;;;;5096227;28;20047;-60
2023/03/09 02:13:11;;;;;;;10.18;6.00;;;11.90;83.10;;;;;;5097668;27;20118;-63
2023/03/09 02:15:36;;;;;;;10.00;6.88;;;12.00;87.30;;;;;;5096577;28;20047;-60
2023/03/09 02:18:02;;;;;;;9.77;6.40;;;12.20;87.50;;;;;;5114668;28;20442;-60
2023/03/09 02:20:51;;;;;;;9.80;6.53;;;12.00;84.70;;;;;;5107490;28;20139;-63
2023/03/09 02:23:25;;;;;;;11.00;7.20;;;12.10;84.70;;;;;;5105891;28;20512;-60
2023/03/09 02:25:56;;;;;;;11.18;6.93;;;11.90;84.30;;;;;;5095287;28;20040;-60
2023/03/09 02:28:22;;;;;;;12.05;7.35;;;12.00;87.30;;;;;;5096595;28;20498;-60
2023/03/09 02:30:48;;;;;;;10.15;6.60;;;12.10;87.40;;;;;;5113951;28;20183;-60
2023/03/09 02:33:25;;;;;;;11.05;7.03;;;;;;;;;;5094999;28;20112;-61
2023/03/09 02:35:55;;;;;;;10.65;6.97;;;12.20;87.50;;;;;;5114088;28;20040;-61
2023/03/09 02:42:03;;;;;;;10.00;6.63;;;;;;;;;;5112123;28;20092;-68
2023/03/09 02:44:28;;;;;;;10.48;7.38;;;12.10;87.40;;;;;;5112602;28;20067;-67
2023/03/09 02:46:54;;;;;;;10.60;6.57;;;;;;;;;;5113483;28;20087;-66
2023/03/09 02:49:21;;;;;;;11.80;7.43;;;;;;;;;;5113619;28;20089;-61
2023/03/09 02:51:47;;;;;;;12.90;7.20;;;;;;;;;;5113593;28;20048;-60
2023/03/09 02:54:13;;;;;;;10.73;7.28;;;;;;;;;;5102754;28;20040;-66
2023/03/09 02:56:39;;;;;;;11.77;7.10;;;;;;;;;;5093516;28;20394;-61
2023/03/09 02:59:05;;;;;;;10.80;7.03;;;;;;;;;;5093438;28;20517;-63
2023/03/09 03:01:31;;;;;;;10.40;7.03;;;12.20;87.50;;;;;;5113338;28;20051;-60
2023/03/09 03:03:57;;;;;;;11.35;7.05;;;11.90;87.30;;;;;;5113635;28;20032;-60
2023/03/09 03:06:23;;;;;;;10.07;6.45;;;;;;;;;;5113388;28;20044;-60
2023/03/09 03:08:49;;;;;;;11.75;7.30;;;12.00;87.50;;;;;;5113415;28;20118;-60
2023/03/09 03:11:15;;;;;;;12.55;7.97;;;;;;;;;;5108021;28;20044;-60
2023/03/09 03:13:41;;;;;;;12.80;7.60;;;12.20;87.60;;;;;;5093257;28;20040;-60
2023/03/09 03:16:07;;;;;;;11.45;7.40;;;12.00;87.40;;;;;;5093172;28;20473;-61
2023/03/09 03:18:32;;;;;;;12.50;8.05;;;12.20;87.60;;;;;;5093184;28;20040;-60
2023/03/09 03:20:58;;;;;;;11.52;7.70;;;12.20;87.60;;;;;;5093133;28;20044;-60
2023/03/09 03:23:24;;;;;;;11.80;7.57;;;12.10;87.70;;;;;;5093129;28;20040;-60
2023/03/09 03:25:50;;;;;;;13.00;7.88;;;;;;;;;;5106945;28;20043;-61
2023/03/09 03:28:16;;;;;;;11.45;7.47;;;;;;;;;;5108050;28;20398;-60
2023/03/09 03:30:42;;;;;;;11.95;7.32;;;;;;;;;;5092964;28;20043;-61
2023/03/09 03:33:08;;;;;;;12.27;7.57;;;12.20;87.70;;;;;;5092656;28;20051;-60
2023/03/09 03:35:34;;;;;;;12.95;8.13;;;12.20;87.70;;;;;;5101018;28;20043;-60
2023/03/09 03:37:59;;;;;;;12.88;7.80;;;12.10;87.50;;;;;;5111880;28;20047;-61
2023/03/09 03:40:26;;;;;;;11.77;8.00;;;;;;;;;;5113310;28;20067;-61
2023/03/09 03:42:52;;;;;;;11.52;7.70;;;;;;;;;;5113266;28;20043;-60
2023/03/09 03:45:18;;;;;;;13.25;7.72;;;12.10;87.60;;;;;;5108342;28;20593;-60
2023/03/09 03:47:44;;;;;;;12.15;7.63;;;12.10;86.50;;;;;;5113164;28;20396;-60
2023/03/09 03:50:10;;;;;;;13.07;8.70;;;12.00;87.60;;;;;;5113101;28;20039;-59
2023/03/09 03:52:36;;;;;;;11.80;7.75;;;11.90;87.50;;;;;;5113214;28;20072;-63
2023/03/09 03:55:02;;;;;;;12.52;8.05;;;12.10;87.60;;;;;;5113212;28;20060;-62
2023/03/09 03:57:28;;;;;;;11.10;7.13;;;12.10;87.70;;;;;;5113124;28;20437;-60
2023/03/09 03:59:54;;;;;;;10.93;6.90;;;12.00;87.50;;;;;;5112701;28;20108;-62
2023/03/09 04:02:20;;;;;;;12.13;7.88;;;;;;;;;;5106823;28;20401;-61
2023/03/09 04:04:46;;;;;;;13.60;8.02;;;12.00;87.60;;;;;;5092600;28;20393;-60
2023/03/09 04:07:12;;;;;;;12.38;7.75;;;12.00;87.50;;;;;;5093828;28;20048;-60
2023/03/09 04:09:38;;;;;;;12.05;7.25;;;12.00;87.60;;;;;;5112584;28;20054;-60
2023/03/09 04:12:04;;;;;;;12.43;6.97;;;12.00;84.10;;;;;;5112648;28;20073;-61
2023/03/09 04:14:34;;;;;;;11.93;7.70;;;12.00;87.60;;;;;;5112585;28;20032;-60
2023/03/09 04:17:00;;;;;;;13.25;7.15;;;;;;;;;;5112901;28;20195;-61
2023/03/09 04:19:26;;;;;;;11.80;7.10;;;;;;;;;;5106204;28;20040;-61
2023/03/09 04:21:52;;;;;;;10.05;6.63;;;;;;;;;;5092532;28;20090;-61
2023/03/09 04:24:18;;;;;;;10.50;6.72;;;12.00;87.80;;;;;;5092234;28;20092;-62
2023/03/09 04:26:44;;;;;;;11.93;7.30;;;;;;;;;;5098781;28;20079;-60
2023/03/09 04:29:10;;;;;;;10.90;7.18;;;;;;;;;;5112557;28;20175;-61
2023/03/09 04:31:36;;;;;;;12.10;7.15;;;;;;;;;;5112695;28;20116;-60
2023/03/09 04:34:02;;;;;;;11.63;7.45;;;12.10;87.70;;;;;;5112297;28;20047;-60
2023/03/09 04:36:28;;;;;;;12.00;7.57;;;11.90;87.60;;;;;;5105260;28;20055;-60
2023/03/09 04:38:53;;;;;;;12.27;7.32;;;12.20;87.70;;;;;;5092364;28;20044;-60
2023/03/09 04:41:19;;;;;;;11.07;7.22;;;;;;;;;;5097623;28;20043;-60
2023/03/09 04:43:46;;;;;;;10.18;6.70;;;;;;;;;;5112344;28;20051;-60
2023/03/09 04:46:12;;;;;;;12.43;7.88;;;;;;;;;;5112306;28;20083;-60
2023/03/09 04:48:38;;;;;;;11.93;7.35;;;12.00;87.60;;;;;;5112662;28;20111;-60
2023/03/09 04:51:04;;;;;;;11.10;7.28;;;12.00;85.00;;;;;;5115158;28;20119;-60
2023/03/09 04:53:30;;;;;;;10.73;7.25;;;;;;;;;;5109470;28;20362;-62
2023/03/09 04:55:56;;;;;;;11.10;7.35;;;;;;;;;;5116282;28;20397;-61
2023/03/09 04:58:22;;;;;;;10.68;7.22;;;12.10;87.60;;;;;;5115979;28;20044;-60
2023/03/09 05:00:48;;;;;;;11.45;7.32;;;12.10;87.60;;;;;;5115878;28;20412;-60
2023/03/09 05:03:15;;;;;;;11.57;7.40;;;12.20;87.50;;;;;;5115812;28;20046;-62
2023/03/09 05:05:41;;;;;;;12.07;7.25;;;12.20;86.90;;;;;;5115608;28;20516;-62
2023/03/09 05:08:08;;;;;;;11.52;7.47;;;;;;;;;;5115299;28;20040;-60
2023/03/09 05:10:34;;;;;;;12.57;7.68;;;;;;;;;;5107855;28;20552;-60
2023/03/09 05:12:59;;;;;;;11.40;7.35;;;12.20;87.60;;;;;;5095553;28;20048;-60
2023/03/09 05:15:25;;;;;;;10.30;6.78;;;12.10;87.60;;;;;;5095091;28;20122;-60
2023/03/09 05:17:51;;;;;;;10.82;7.28;;;;;;;;;;5109237;28;20575;-62
2023/03/09 05:20:17;;;;;;;12.15;7.05;;;11.70;87.40;;;;;;5115529;28;20048;-61
2023/03/09 05:22:43;;;;;;;11.48;7.15;;;12.30;87.80;;;;;;5115530;28;20043;-62
2023/03/09 05:25:09;;;;;;;11.50;6.85;;;12.30;87.70;;;;;;5115713;28;20468;-60
2023/03/09 05:27:35;;;;;;;11.25;7.43;;;12.10;87.60;;;;;;5107830;28;20405;-60
2023/03/09 05:30:01;;;;;;;10.20;6.80;;;12.20;87.60;;;;;;5094810;28;20432;-60
2023/03/09 05:32:27;;;;;;;10.73;7.18;;;;;;;;;;5107642;28;20040;-60
2023/03/09 05:34:53;;;;;;;11.00;7.20;;;12.20;87.60;;;;;;5115343;28;20052;-61
2023/03/09 05:37:19;;;;;;;12.07;7.78;;;11.80;87.30;;;;;;5115480;28;20534;-60
2023/03/09 05:39:44;;;;;;;11.38;7.18;;;11.80;87.30;;;;;;5115427;28;20431;-59
2023/03/09 05:42:10;;;;;;;12.35;7.53;;;11.70;87.30;;;;;;5114980;28;20028;-60
2023/03/09 05:44:36;;;;;;;13.45;7.28;;;;;;;;;;5107311;28;20048;-60
2023/03/09 05:47:02;;;;;;;11.15;6.47;;;;;;;;;;5094868;28;20188;-61
2023/03/09 05:49:30;;;;;;;12.52;7.60;;;12.10;85.10;;;;;;5096688;28;20063;-60
2023/03/09 05:51:56;;;;;;;10.73;6.75;;;;;;;;;;5114842;28;20062;-60
2023/03/09 05:54:22;;;;;;;11.82;7.25;;;12.00;87.50;;;;;;5114782;28;20481;-60
2023/03/09 05:56:48;;;;;;;12.52;7.88;;;;;;;;;;5114346;28;20047;-60
2023/03/09 05:59:15;;;;;;;10.50;6.50;;;11.70;86.40;;;;;;5114698;28;20060;-63
2023/03/09 06:01:41;;;;;;;12.38;7.15;;;11.90;87.50;;;;;;5106378;28;20127;-60
2023/03/09 06:04:06;;;;;;;11.73;7.13;;;12.00;87.50;;;;;;5094141;28;20123;-60
2023/03/09 06:06:33;;;;;;;10.75;7.05;;;;;;;;;;5093623;28;20040;-60
2023/03/09 06:08:59;;;;;;;11.90;7.18;;;;;;;;;;5114434;28;20150;-61
2023/03/09 06:11:25;;;;;;;11.75;7.22;;;12.10;87.80;;;;;;5114368;28;20135;-62
2023/03/09 06:13:54;;;;;;;10.63;7.10;;;;;;;;;;5114778;28;20067;-60
2023/03/09 06:16:20;;;;;;;10.55;6.22;;;11.90;87.60;;;;;;5114692;28;20509;-61
2023/03/09 06:18:46;;;;;;;10.10;6.70;;;12.40;87.90;;;;;;5105194;28;20080;-60
2023/03/09 06:21:12;;;;;;;11.93;6.95;;;12.20;87.70;;;;;;5100754;28;20051;-60
2023/03/09 06:23:38;;;;;;;10.88;6.75;;;;;;;;;;5114524;28;20043;-61
2023/03/09 06:26:04;;;;;;;10.02;6.53;;;;;;;;;;5114159;28;20083;-60
2023/03/09 06:28:30;;;;;;;10.65;7.03;;;12.30;87.60;;;;;;5114122;28;20039;-60
2023/03/09 06:30:56;;;;;;;10.30;6.53;;;12.70;87.80;;;;;;5114020;28;20096;-60
2023/03/09 06:33:22;;;;;;;10.85;7.40;;;12.30;87.50;;;;;;5114039;28;20122;-61
2023/03/09 06:35:48;;;;;;;9.82;6.60;;;12.50;87.60;;;;;;5109613;28;20047;-64
2023/03/09 06:38:13;;;;;;;10.25;6.75;;;12.20;87.40;;;;;;5113554;28;20048;-60
2023/03/09 06:40:39;;;;;;;12.35;7.55;;;12.10;87.60;;;;;;5113881;28;20046;-60
2023/03/09 06:43:06;;;;;;;10.88;6.97;;;;;;;;;;5113841;28;20047;-60
2023/03/09 06:45:32;;;;;;;12.80;7.07;;;;;;;;;;5114105;28;20408;-65
2023/03/09 06:47:58;;;;;;;9.82;6.50;;;12.30;87.50;;;;;;5113649;28;20075;-59
2023/03/09 06:50:24;;;;;;;12.60;7.40;;;;;;;;;;5113257;28;20074;-69
2023/03/09 06:52:51;;;;;;;11.98;7.10;;;12.20;87.60;;;;;;5103934;28;20051;-66
2023/03/09 06:55:17;;;;;;;11.32;7.30;;;12.20;87.50;;;;;;5093310;28;20055;-64
2023/03/09 06:57:43;;;;;;;12.07;6.88;;;12.30;87.60;;;;;;5093173;28;20036;-64
2023/03/09 07:00:12;;;;;;;11.63;6.75;;;;;;;;;;5106621;28;20047;-65
2023/03/09 07:02:39;;;;;;;11.73;6.65;;;11.90;87.30;;;;;;5113025;28;20051;-66
2023/03/09 07:05:08;;;;;;;9.82;6.40;;;12.20;83.60;;;;;;5113708;28;20484;-62
2023/03/09 07:07:34;;;;;;;11.45;6.97;;;12.30;87.40;;;;;;5113766;28;20427;-66
2023/03/09 07:10:00;;;;;;;11.93;7.22;;;12.30;87.30;;;;;;5109213;28;20039;-62
2023/03/09 07:12:25;;;;;;;12.32;7.47;;;12.50;87.40;;;;;;5112842;28;20048;-63
2023/03/09 07:14:51;;;;;;;12.27;7.43;;;12.30;87.30;;;;;;5113569;28;20040;-62
2023/03/09 07:17:17;;;;;;;11.52;6.75;;;;;;;;;;5113701;28;20079;-65
2023/03/09 07:19:44;;;;;;;11.57;7.30;;;;;;;;;;5112883;28;20134;-65
2023/03/09 07:22:11;;;;;;;10.85;6.90;;;12.40;85.20;;;;;;5092816;28;20501;-65
2023/03/09 07:24:37;;;;;;;12.00;7.10;;;12.50;87.30;;;;;;5093173;28;20040;-65
2023/03/09 07:27:03;;;;;;;11.02;7.07;;;;;;;;;;5093672;28;20056;-63
2023/03/09 07:29:29;;;;;;;11.00;7.13;;;12.30;87.10;;;;;;5093051;28;20059;-65
2023/03/09 07:31:54;;;;;;;9.93;6.85;;;12.60;87.20;;;;;;5106936;28;20043;-65
2023/03/09 07:34:20;;;;;;;11.35;6.57;;;12.50;87.10;;;;;;5112994;28;20039;-63
2023/03/09 07:36:47;;;;;;;12.85;7.32;;;;;;;;;;5113360;28;20090;-60
2023/03/09 07:39:14;;;;;;;10.65;7.53;;;12.50;85.00;;;;;;5113443;28;20047;-62
2023/03/09 07:41:41;;;;;;;11.35;6.85;;;12.60;86.90;;;;;;5112882;28;20043;-61
2023/03/09 07:44:07;;;;;;;11.07;7.05;;;12.10;86.60;;;;;;5100548;28;20517;-61
2023/03/09 07:46:33;;;;;;;11.45;6.78;;;12.60;86.70;;;;;;5097394;28;20054;-61
2023/03/09 07:48:59;;;;;;;10.13;6.50;;;;;;;;;;5108764;28;20048;-62
2023/03/09 07:51:25;;;;;;;10.90;6.93;;;12.70;86.80;;;;;;5110474;28;20397;-61
2023/03/09 07:53:51;;;;;;;11.05;7.25;;;12.60;86.70;;;;;;5112925;28;20054;-61
2023/03/09 07:56:17;;;;;;;10.75;7.05;;;12.60;86.60;;;;;;5112329;28;20039;-61
2023/03/09 07:58:44;;;;;;;10.63;6.90;;;12.60;86.70;;;;;;5112071;28;20083;-66
2023/03/09 08:01:16;;;;;;;11.40;7.40;;;12.90;83.90;;;;;;5105098;28;20503;-63
2023/03/09 08:03:46;;;;;;;9.75;6.53;;;13.00;86.50;;;;;;5112270;28;20075;-67
2023/03/09 08:06:12;;;;;;;11.43;7.07;;;12.80;86.30;;;;;;5093379;28;20485;-62
2023/03/09 08:08:38;;;;;;;10.93;7.10;;;;;;;;;;5112727;28;20052;-61
2023/03/09 08:11:05;;;;;;;10.88;6.88;;;;;;;;;;5111856;28;20083;-66
2023/03/09 08:13:31;;;;;;;10.88;7.50;;;13.30;86.00;;;;;;5112638;28;20044;-64
2023/03/09 08:15:59;;;;;;;10.52;7.03;;;13.30;82.90;;;;;;5110887;28;20083;-68
2023/03/09 08:18:25;;;;;;;10.57;7.45;;;;;;;;;;5096865;28;20054;-68
2023/03/09 08:20:51;;;;;;;11.68;7.38;;;13.30;85.40;;;;;;5098805;28;20119;-67
2023/03/09 08:23:17;;;;;;;9.18;6.55;;;13.70;85.50;;;;;;5107364;28;20520;-60
2023/03/09 08:25:44;;;;;;;10.95;6.38;;;13.30;85.20;;;;;;5115396;28;20408;-64
2023/03/09 08:28:11;;;;;;;11.88;7.28;;;13.50;82.20;;;;;;5111365;28;20420;-60
2023/03/09 08:30:38;;;;;;;10.65;7.43;;;;;;;;;;5105568;28;20497;-60
2023/03/09 08:33:04;;;;;;;10.77;6.82;;;13.90;85.30;;;;;;5108126;28;20040;-60
2023/03/09 08:35:32;;;;;;;9.55;6.70;;;;;;;;;;5106392;28;20054;-60
2023/03/09 08:37:59;;;;;;;11.27;7.47;;;13.60;85.00;;;;;;5104467;28;20043;-61
2023/03/09 08:40:25;;;;;;;9.95;6.75;;;13.60;84.90;;;;;;5106528;28;20103;-64
2023/03/09 08:42:51;;;;;;;9.77;6.70;;;;;;;;;;5077672;28;20441;-65
2023/03/09 08:45:17;;;;;;;9.90;6.15;;;13.70;84.90;;;;;;5095759;28;20051;-60
2023/03/09 08:47:43;;;;;;;9.80;6.50;;;13.60;84.90;;;;;;5096040;28;20085;-60
2023/03/09 08:50:09;;;;;;;11.43;6.30;;;13.80;85.00;;;;;;5095906;28;20549;-59
2023/03/09 08:52:37;;;;;;;10.45;6.53;;;13.50;84.80;;;;;;5100751;28;20040;-60
2023/03/09 08:55:04;;;;;;;9.13;5.57;;;13.80;84.80;;;;;;5116318;28;20416;-60
2023/03/09 08:57:30;;;;;;;9.48;6.32;;;13.90;84.90;;;;;;5115889;28;20040;-66
2023/03/09 08:59:56;;;;;;;13.68;6.25;;;;;;;;;;5115630;28;20047;-62
2023/03/09 09:02:23;;;;;;;11.82;6.10;;;13.90;84.70;;;;;;5115370;28;20173;-61
2023/03/09 09:04:49;;;;;;;9.07;5.88;;;;;;;;;;5116000;28;20075;-61
2023/03/09 09:07:15;;;;;;;10.82;5.63;;;13.90;84.60;;;;;;5115981;28;20104;-60
2023/03/09 09:09:41;;;;;;;7.85;5.45;;;13.90;84.50;;;;;;5098132;28;20048;-60
2023/03/09 09:12:07;;;;;;;9.43;5.82;;;;;;;;;;5097735;28;20132;-61
2023/03/09 09:14:34;;;;;;;8.75;5.75;;;13.90;84.60;;;;;;5115207;28;20039;-70
2023/03/09 09:17:00;;;;;;;9.05;5.88;;;14.00;84.50;;;;;;5115573;28;20047;-71
2023/03/09 09:19:27;;;;;;;7.72;5.57;;;;;;;;;;5115839;28;20039;-70
2023/03/09 09:21:54;;;;;;;8.90;5.65;;;13.90;81.50;;;;;;5115465;28;20100;-72
2023/03/09 09:24:21;;;;;;;8.02;5.30;;;13.90;84.30;;;;;;5115373;28;20096;-71
2023/03/09 09:26:46;;;;;;;8.85;5.78;;;14.10;84.50;;;;;;5097561;28;20269;-71
2023/03/09 09:29:13;;;;;;;9.20;5.53;;;;;;;;;;5094973;28;20459;-71
2023/03/09 09:31:39;;;;;;;9.13;5.55;;;13.90;84.40;;;;;;5095045;28;20040;-71
2023/03/09 09:34:05;;;;;;;10.05;5.80;;;13.80;84.30;;;;;;5099930;28;20545;-70
2023/03/09 09:36:33;;;;;;;9.20;5.53;;;13.90;84.30;;;;;;5114751;28;20104;-71
2023/03/09 09:38:59;;;;;;;8.80;5.40;;;13.90;84.40;;;;;;5115469;28;20454;-67
2023/03/09 09:41:25;;;;;;;8.55;5.30;;;;;;;;;;5115401;28;20066;-69
2023/03/09 09:43:56;;;;;;;8.73;5.25;;;13.90;81.40;;;;;;5102228;28;20393;-70
2023/03/09 09:46:22;;;;;;;9.45;5.07;;;13.70;84.30;;;;;;5113098;28;20103;-71
2023/03/09 09:48:48;;;;;;;8.07;5.32;;;13.80;84.50;;;;;;5114909;28;20040;-67
2023/03/09 09:51:23;;;;;;;9.90;5.03;;;;;;;;;;5113572;28;20059;-69
2023/03/09 09:53:59;;;;;;;8.88;5.15;;;;;;;;;;5114777;28;20453;-71
2023/03/09 09:56:28;;;;;;;8.73;5.10;;;13.70;84.60;;;;;;5096740;28;20047;-74
2023/03/09 09:58:57;;;;;;;9.30;5.18;;;13.60;84.60;;;;;;5111380;28;20047;-62
2023/03/09 10:01:30;;;;;;;7.30;4.72;;;;;;;;;;5093169;28;20451;-73
2023/03/09 10:03:59;;;;;;;7.30;4.88;;;13.50;81.50;;;;;;5094096;28;20051;-73
2023/03/09 10:06:25;;;;;;;7.95;4.47;;;13.60;80.90;;;;;;5115319;27;20048;-73
2023/03/09 10:08:58;;;;;;;8.57;4.50;;;13.70;80.50;;;;;;5114454;28;20044;-71
2023/03/09 10:11:26;;;;;;;;;;;13.60;82.00;;;;;;5114799;28;20051;-73
2023/03/09 10:13:54;;;;;;;6.78;4.53;;;;;;;;;;5112855;28;19920;-71
2023/03/09 10:16:28;;;;;;;10.55;4.28;;;13.50;80.20;;;;;;5098509;28;20060;-74
2023/03/09 10:19:01;;;;;;;8.32;4.85;;;13.60;81.70;;;;;;5075818;28;20177;-72
2023/03/09 10:21:36;;;;;;;9.10;4.70;;;13.60;81.80;;;;;;5093712;28;20063;-73
2023/03/09 10:24:36;;;;;;;7.35;4.10;;;13.50;82.00;;;;;;5093715;28;20044;-71
2023/03/09 10:27:06;;;;;;;7.25;4.38;;;13.70;84.60;;;;;;5093773;28;20074;-73
2023/03/09 10:29:51;;;;;;;8.20;4.30;;;;;;;;;;5095802;28;20043;-70
2023/03/09 10:32:40;;;;;;;6.60;3.88;;;13.50;82.00;;;;;;5113911;28;20568;-70
2023/03/09 10:35:06;;;;;;;6.25;4.25;;;;;;;;;;5092510;28;20059;-70
2023/03/09 10:37:35;;;;;;;7.55;4.65;;;13.60;84.50;;;;;;5100011;28;20046;-70
2023/03/09 10:40:14;;;;;;;6.03;3.97;;;13.70;80.40;;;;;;5096031;28;20492;-70
2023/03/09 10:42:40;;;;;;;6.32;3.95;;;13.70;84.60;;;;;;5114209;28;20055;-72
2023/03/09 10:45:22;;;;;;;7.07;4.03;;;;;;;;;;5114109;28;20809;-71
2023/03/09 10:47:57;;;;;;;6.32;4.05;;;13.80;84.70;;;;;;5094988;28;20050;-72
2023/03/09 10:50:26;;;;;;;7.68;4.55;;;13.60;82.30;;;;;;5107506;28;20489;-72
2023/03/09 10:52:55;;;;;;;7.35;4.55;;;13.80;81.70;;;;;;5103879;27;20047;-71
2023/03/09 10:55:34;;;;;;;6.78;4.30;;;13.60;80.80;;;;;;5112808;28;20043;-71
2023/03/09 10:58:17;;;;;;;6.80;4.88;;;13.30;80.50;;;;;;5090005;28;20051;-70
2023/03/09 11:01:04;;;;;;;7.10;4.60;;;13.50;82.00;;;;;;5093039;28;20047;-71
2023/03/09 11:03:37;;;;;;;7.75;4.28;;;;;;;;;;5106066;28;20044;-70
2023/03/09 11:06:29;;;;;;;7.13;3.88;;;13.60;82.30;;;;;;5113438;28;20039;-70
2023/03/09 11:09:20;;;;;;;7.70;4.30;;;13.50;80.50;;;;;;5086630;28;20101;-72
2023/03/09 11:11:47;;;;;;;6.13;3.90;;;13.40;84.70;;;;;;5106476;28;20063;-68
2023/03/09 11:14:29;;;;;;;8.40;4.50;;;13.50;80.70;;;;;;5112903;28;20047;-69
2023/03/09 11:16:56;;;;;;;7.93;4.50;;;13.50;81.70;;;;;;5112227;28;20392;-71
2023/03/09 11:19:22;;;;;;;6.03;3.88;;;;;;;;;;5113182;28;20083;-70
2023/03/09 11:21:48;;;;;;;6.57;4.40;;;;;;;;;;5106782;28;20394;-68
2023/03/09 11:24:14;;;;;;;8.73;4.70;;;13.50;84.70;;;;;;5108037;28;20039;-68
2023/03/09 11:26:43;;;;;;;8.75;5.10;;;;;;;;;;5103208;27;20484;-74
2023/03/09 11:29:29;;;;;;;8.27;4.75;;;13.30;82.10;;;;;;5110155;28;20373;-68
2023/03/09 11:31:55;;;;;;;10.70;4.47;;;13.30;84.80;;;;;;5095931;28;20040;-66
2023/03/09 11:34:24;;;;;;;7.90;4.38;;;;;;;;;;5112637;28;20118;-63
2023/03/09 11:36:55;;;;;;;9.10;4.88;;;13.20;81.70;;;;;;5112829;28;20055;-73
2023/03/09 11:39:52;;;;;;;5.90;4.00;;;13.40;82.10;;;;;;5111734;28;20043;-72
2023/03/09 11:42:22;;;;;;;8.43;4.72;;;13.50;81.80;;;;;;5080815;28;20067;-73
2023/03/09 11:44:49;;;;;;;7.63;4.85;;;;;;;;;;5092812;28;20036;-74
2023/03/09 11:47:29;;;;;;;8.57;4.15;;;;;;;;;;5090400;28;20569;-72
2023/03/09 11:49:55;;;;;;;6.95;4.63;;;13.10;84.50;;;;;;5110786;28;20058;-61
2023/03/09 11:52:35;;;;;;;7.90;4.57;;;13.30;81.90;;;;;;5083872;28;20386;-61
2023/03/09 11:55:05;;;;;;;6.22;4.40;;;;;;;;;;5112619;28;20100;-64
2023/03/09 11:57:30;;;;;;;7.25;4.63;;;13.60;84.70;;;;;;5112269;28;20044;-68
2023/03/09 11:59:59;;;;;;;6.75;4.50;;;13.70;84.80;;;;;;5066785;28;20137;-70
2023/03/09 12:02:44;;;;;;;7.18;4.38;;;;;;;;;;5095737;28;20048;-72
2023/03/09 12:05:12;;;;;;;6.53;4.18;;;13.40;81.60;;;;;;5096728;28;20097;-59
2023/03/09 12:07:40;;;;;;;8.15;4.70;;;;;;;;;;5096377;28;20037;-60
2023/03/09 12:10:16;;;;;;;8.52;5.40;;;13.50;80.20;;;;;;5096647;28;20160;-60
2023/03/09 12:12:51;;;;;;;7.43;4.55;;;13.50;82.00;;;;;;5096754;28;20458;-66
2023/03/09 12:15:36;;;;;;;6.70;4.63;;;;;;;;;;5106549;28;20048;-70
2023/03/09 12:18:03;;;;;;;7.22;4.60;;;;;;;;;;5076386;28;20044;-60
2023/03/09 12:20:34;;;;;;;7.57;4.90;;;13.50;80.30;;;;;;5076325;28;20044;-59
2023/03/09 12:23:00;;;;;;;8.40;5.28;;;;;;;;;;5109079;28;20040;-66
2023/03/09 12:25:26;;;;;;;7.68;5.15;;;;;;;;;;5095012;28;20079;-63
2023/03/09 12:27:57;;;;;;;7.05;4.30;;;13.80;84.70;;;;;;5096139;28;20507;-61
2023/03/09 12:30:24;;;;;;;9.43;4.90;;;13.50;81.40;;;;;;5096282;28;20127;-64
2023/03/09 12:32:50;;;;;;;8.98;4.57;;;13.60;82.20;;;;;;5068291;28;20045;-61
2023/03/09 12:35:22;;;;;;;7.55;4.72;;;13.60;80.40;;;;;;5103672;28;20109;-61
2023/03/09 12:37:55;;;;;;;7.25;4.75;;;13.50;80.30;;;;;;5096395;28;20048;-61
2023/03/09 12:40:27;;;;;;;8.73;4.63;;;;;;;;;;5096353;28;20047;-61
2023/03/09 12:42:57;;;;;;;8.02;4.75;;;13.70;84.50;;;;;;5096230;28;20051;-62
2023/03/09 12:45:27;;;;;;;7.05;4.85;;;13.80;84.60;;;;;;5095840;28;20036;-61
2023/03/09 12:48:07;;;;;;;8.23;4.95;;;13.60;81.70;;;;;;5090267;28;20067;-63
2023/03/09 12:50:42;;;;;;;7.15;4.60;;;;;;;;;;5081173;28;20136;-60
2023/03/09 12:53:14;;;;;;;7.10;4.45;;;13.50;84.40;;;;;;5095697;28;20048;-71
2023/03/09 12:55:40;;;;;;;8.23;5.03;;;13.30;84.30;;;;;;5095585;28;20036;-64
2023/03/09 12:58:31;;;;;;;7.75;4.50;;;13.50;82.00;;;;;;5096385;28;20051;-62
2023/03/09 13:01:13;;;;;;;7.18;4.68;;;;;;;;;;5100425;28;20566;-65
2023/03/09 13:03:41;;;;;;;8.35;4.78;;;13.50;80.00;;;;;;5106727;28;20039;-63
2023/03/09 13:06:23;;;;;;;11.98;4.95;;;;;;;;;;5106971;28;20076;-66
2023/03/09 13:09:19;;;;;;;13.25;5.50;;;13.70;80.30;;;;;;5111199;28;20416;-64
2023/03/09 13:11:55;;;;;;;10.38;5.25;;;13.50;84.40;;;;;;5101530;28;20051;-65
2023/03/09 13:14:24;;;;;;;13.77;5.72;;;13.50;80.10;;;;;;5109238;28;20039;-66
2023/03/09 13:16:51;;;;;;;9.50;5.07;;;;;;;;;;5111948;28;20048;-65
2023/03/09 13:19:20;;;;;;;11.00;5.60;;;13.40;84.50;;;;;;5109907;28;20461;-65
2023/03/09 13:21:55;;;;;;;8.73;5.43;;;13.50;84.70;;;;;;5115703;28;20071;-66
2023/03/09 13:24:39;;;;;;;9.00;5.15;;;;;;;;;;5109393;28;20076;-61